Time;durP1;ratioP1;P1;durP2;ratioP2;P2;SDS_P1;SDS_P2;PMS_P1;PMS_P2;Temp;Humidity;BMP_temperature;BMP_pressure;BME280_temperature;BME280_humidity;BME280_pressure;Samples;Min_cycle;Max_cycle;Signal;HPM_P1;HPM_P2
2022/05/07 15:42:15;;;;;;;5.60;3.45;;;25.40;38.70;;;;;;7698647;22;1575375;-69
2022/05/07 15:45:19;;;;;;;5.60;3.40;;;25.50;38.90;;;;;;7783145;22;20016;-69
2022/05/07 15:48:20;;;;;;;4.97;3.25;;;25.40;39.10;;;;;;7757539;22;20083;-70
2022/05/07 15:51:21;;;;;;;8.35;3.28;;;25.30;39.30;;;;;;7785286;22;20380;-70
2022/05/07 15:54:23;;;;;;;4.95;3.13;;;25.10;39.90;;;;;;7785322;22;20074;-70
2022/05/07 15:57:24;;;;;;;4.80;3.38;;;24.90;41.00;;;;;;7776108;22;20007;-69
2022/05/07 16:00:25;;;;;;;4.25;3.15;;;24.70;41.70;;;;;;7782474;22;20033;-69
2022/05/07 16:03:26;;;;;;;6.45;3.55;;;24.60;42.10;;;;;;7759863;22;20414;-69
2022/05/07 16:06:27;;;;;;;10.07;3.40;;;24.50;42.30;;;;;;7777935;22;20023;-69
2022/05/07 16:09:28;;;;;;;4.03;2.92;;;24.60;42.20;;;;;;7778407;22;20020;-70
2022/05/07 16:12:29;;;;;;;4.95;3.15;;;24.60;41.90;;;;;;7786657;22;20396;-69
2022/05/07 16:15:31;;;;;;;4.63;2.75;;;24.60;41.70;;;;;;7759285;22;20012;-70
2022/05/07 16:18:32;;;;;;;4.43;2.40;;;24.60;41.60;;;;;;7785405;22;20007;-69
2022/05/07 16:21:33;;;;;;;3.25;2.22;;;24.40;41.80;;;;;;7759972;22;20366;-70
2022/05/07 16:27:55;;;;;;;5.10;2.97;;;23.90;43.30;;;;;;7825079;22;20015;-69
2022/05/07 16:30:57;;;;;;;6.13;3.13;;;23.60;44.40;;;;;;7824763;22;20075;-69
2022/05/07 16:34:02;;;;;;;9.15;3.83;;;23.30;45.40;;;;;;7762009;22;20318;-69
2022/05/07 16:37:03;;;;;;;4.50;3.15;;;23.10;46.20;;;;;;7759115;22;20325;-69
2022/05/07 16:40:05;;;;;;;6.47;3.38;;;22.80;46.80;;;;;;7784414;22;20023;-69
2022/05/07 16:43:06;;;;;;;6.40;4.28;;;22.70;46.90;;;;;;7783675;22;20030;-69
2022/05/07 16:46:07;;;;;;;8.68;3.42;;;22.70;47.00;;;;;;7783313;22;20012;-70
2022/05/07 16:49:08;;;;;;;6.80;3.47;;;22.60;47.40;;;;;;7762199;22;20033;-69
2022/05/07 16:52:10;;;;;;;6.45;3.15;;;22.50;47.60;;;;;;7721209;22;20103;-69
2022/05/07 16:55:11;;;;;;;3.92;2.90;;;22.40;48.00;;;;;;7758858;22;20085;-69
2022/05/07 16:58:12;;;;;;;6.20;3.45;;;22.30;48.80;;;;;;7785826;22;20095;-68
2022/05/07 17:01:13;;;;;;;7.53;3.13;;;22.20;49.60;;;;;;7758130;22;20030;-68
2022/05/07 17:04:14;;;;;;;3.92;2.88;;;22.10;50.10;;;;;;7787604;22;20019;-69
2022/05/07 17:07:15;;;;;;;6.15;3.47;;;22.00;50.30;;;;;;7786427;22;20426;-68
2022/05/07 17:10:19;;;;;;;6.05;3.28;;;22.00;50.40;;;;;;7785092;22;20019;-69
2022/05/07 17:13:21;;;;;;;7.78;3.17;;;21.90;50.70;;;;;;7785102;22;20315;-69
2022/05/07 17:16:22;;;;;;;5.43;3.67;;;22.00;50.80;;;;;;7787219;22;20444;-69
2022/05/07 17:19:23;;;;;;;5.25;3.42;;;21.90;50.80;;;;;;7784392;22;20449;-68
2022/05/07 17:22:25;;;;;;;7.75;3.90;;;21.90;51.30;;;;;;7785046;22;20016;-68
2022/05/07 17:25:32;;;;;;;6.50;3.65;;;21.90;51.60;;;;;;7772700;22;20023;-69
2022/05/07 17:28:33;;;;;;;8.20;3.55;;;21.90;51.90;;;;;;7786196;22;20077;-69
2022/05/07 17:31:35;;;;;;;9.13;3.88;;;21.80;52.10;;;;;;7785723;22;20018;-68
2022/05/07 17:34:38;;;;;;;6.13;3.80;;;21.80;52.40;;;;;;7785774;22;20035;-68
2022/05/07 17:37:39;;;;;;;4.82;3.58;;;21.80;52.40;;;;;;7784454;22;20724;-69
2022/05/07 17:40:41;;;;;;;5.18;3.78;;;21.80;52.60;;;;;;7785555;22;20028;-68
2022/05/07 17:43:43;;;;;;;6.57;4.00;;;21.80;52.60;;;;;;7781953;22;20024;-68
2022/05/07 17:46:44;;;;;;;5.57;3.67;;;21.80;52.60;;;;;;7774182;22;20023;-68
2022/05/07 17:49:46;;;;;;;12.40;3.97;;;21.90;52.50;;;;;;7763817;22;20011;-68
2022/05/07 17:52:49;;;;;;;9.05;4.03;;;22.00;52.40;;;;;;7791074;22;20047;-68
2022/05/07 17:55:50;;;;;;;5.82;3.42;;;22.10;51.90;;;;;;7761344;22;20034;-68
2022/05/07 17:58:55;;;;;;;8.70;3.78;;;22.20;51.60;;;;;;7773722;22;20068;-69
2022/05/07 18:01:59;;;;;;;5.15;3.15;;;22.30;51.30;;;;;;7749327;22;20042;-69
2022/05/07 18:05:00;;;;;;;8.48;3.90;;;22.40;50.90;;;;;;7772896;22;20073;-68
2022/05/07 18:08:02;;;;;;;7.97;4.63;;;22.40;50.50;;;;;;7761332;22;20094;-71
2022/05/07 18:11:03;;;;;;;5.45;3.92;;;22.40;50.30;;;;;;7788775;22;20016;-68
2022/05/07 18:14:06;;;;;;;5.35;3.50;;;22.40;50.30;;;;;;7734057;22;20404;-68
2022/05/07 18:17:08;;;;;;;5.30;3.70;;;22.40;50.00;;;;;;7825856;22;20422;-69
2022/05/07 18:20:10;;;;;;;8.23;3.92;;;22.50;49.80;;;;;;7749019;22;20027;-69
2022/05/07 18:23:12;;;;;;;7.20;4.55;;;22.50;49.50;;;;;;7787569;22;20012;-70
2022/05/07 18:26:13;;;;;;;7.78;3.97;;;22.50;49.40;;;;;;7762721;22;20307;-71
2022/05/07 18:29:16;;;;;;;7.85;3.90;;;22.50;49.30;;;;;;7775448;22;20015;-70
2022/05/07 18:32:17;;;;;;;9.13;4.38;;;22.50;49.60;;;;;;7775181;22;20023;-71
2022/05/07 18:35:19;;;;;;;9.45;4.25;;;22.40;50.00;;;;;;7825398;22;20019;-71
2022/05/07 18:45:01;;;;;;;7.20;3.88;;;22.10;50.40;;;;;;7798643;22;20026;-70
2022/05/07 18:48:03;;;;;;;6.60;3.60;;;22.00;50.00;;;;;;7798144;22;20011;-70
2022/05/07 18:51:05;;;;;;;4.90;3.83;;;22.00;49.80;;;;;;7825738;22;20019;-71
2022/05/07 18:54:06;;;;;;;11.65;4.20;;;21.90;50.10;;;;;;7772970;22;20018;-70
2022/05/07 19:00:31;;;;;;;4.95;3.63;;;21.60;51.40;;;;;;7825012;22;20023;-70
2022/05/07 19:03:32;;;;;;;8.98;4.97;;;21.60;50.70;;;;;;7772911;22;20046;-75
2022/05/07 19:06:34;;;;;;;10.85;4.68;;;21.60;50.70;;;;;;7773084;22;20440;-70
2022/05/07 19:09:35;;;;;;;7.68;4.10;;;21.60;50.80;;;;;;7828142;22;20399;-69
2022/05/07 19:12:38;;;;;;;9.27;5.22;;;21.60;50.90;;;;;;7774796;22;20012;-70
2022/05/07 19:15:39;;;;;;;7.85;5.18;;;21.60;51.20;;;;;;7827139;22;20015;-70
2022/05/07 19:18:40;;;;;;;10.20;5.05;;;21.60;51.30;;;;;;7775157;22;20453;-70
2022/05/07 19:21:42;;;;;;;10.85;5.72;;;21.60;51.30;;;;;;7789305;22;20019;-70
2022/05/07 19:24:44;;;;;;;17.52;6.78;;;21.60;51.30;;;;;;7775690;22;20080;-70
2022/05/07 19:27:46;;;;;;;8.63;5.18;;;21.60;51.40;;;;;;7786350;22;20015;-70
2022/05/07 19:30:48;;;;;;;14.80;7.03;;;21.60;51.60;;;;;;7775894;22;20019;-70
2022/05/07 19:33:51;;;;;;;8.82;5.68;;;21.60;51.60;;;;;;7789900;22;20091;-70
2022/05/07 19:36:53;;;;;;;12.48;6.18;;;21.60;51.70;;;;;;7790632;22;20019;-70
2022/05/07 19:39:55;;;;;;;12.93;5.55;;;21.60;52.10;;;;;;7790472;22;20090;-70
2022/05/07 19:42:56;;;;;;;7.60;4.95;;;21.50;52.50;;;;;;7775436;22;20125;-70
2022/05/07 19:45:58;;;;;;;10.77;5.15;;;21.40;52.80;;;;;;7802219;22;20026;-70
2022/05/07 19:49:00;;;;;;;9.68;5.38;;;21.30;53.00;;;;;;7802502;22;20064;-70
2022/05/07 19:52:01;;;;;;;9.25;5.30;;;21.20;53.30;;;;;;7751564;22;20014;-70
2022/05/07 19:55:03;;;;;;;13.55;6.47;;;21.20;53.50;;;;;;7802708;22;20027;-70
2022/05/07 19:58:04;;;;;;;15.57;5.70;;;21.10;53.70;;;;;;7776620;22;20082;-70
2022/05/07 20:01:07;;;;;;;8.82;5.28;;;21.10;53.90;;;;;;7801969;22;20019;-70
2022/05/07 20:04:08;;;;;;;11.77;5.55;;;21.10;53.80;;;;;;7790481;22;20015;-70
2022/05/07 20:07:11;;;;;;;9.00;5.53;;;21.10;53.80;;;;;;7751270;22;20016;-70
2022/05/07 20:10:13;;;;;;;12.48;5.93;;;21.00;53.90;;;;;;7777038;22;20085;-70
2022/05/07 20:13:15;;;;;;;14.50;6.35;;;21.00;54.00;;;;;;7763009;22;20426;-70
2022/05/07 20:16:16;;;;;;;12.80;6.90;;;21.10;54.10;;;;;;7790618;22;20015;-69
2022/05/07 20:19:17;;;;;;;16.45;8.55;;;21.00;54.20;;;;;;7764040;22;20035;-69
2022/05/07 20:22:18;;;;;;;15.82;8.48;;;21.00;54.40;;;;;;7789980;22;20040;-69
2022/05/07 20:25:19;;;;;;;19.40;9.98;;;21.10;54.70;;;;;;7788706;22;20118;-68
2022/05/07 20:28:20;;;;;;;17.38;8.32;;;21.10;54.90;;;;;;7775352;22;20440;-68
2022/05/07 20:31:24;;;;;;;21.75;9.93;;;21.10;55.10;;;;;;7829042;22;20011;-71
2022/05/07 20:34:26;;;;;;;23.50;11.90;;;21.10;55.30;;;;;;7827466;22;20026;-70
2022/05/07 20:37:27;;;;;;;18.42;8.52;;;21.10;55.40;;;;;;7800595;22;20026;-70
2022/05/07 20:40:29;;;;;;;19.77;8.38;;;21.10;55.40;;;;;;7825670;22;20299;-71
2022/05/07 20:46:55;;;;;;;19.95;6.78;;;21.00;55.30;;;;;;7796909;22;20086;-71
2022/05/07 20:49:58;;;;;;;17.63;7.57;;;21.10;55.30;;;;;;7799327;22;20022;-71
2022/05/07 20:53:00;;;;;;;14.25;7.30;;;21.10;55.20;;;;;;7771074;22;20015;-70
2022/05/07 20:56:01;;;;;;;8.05;5.45;;;21.00;55.00;;;;;;7796947;22;20019;-71
2022/05/07 20:59:04;;;;;;;9.80;5.50;;;21.10;55.00;;;;;;7824937;22;20010;-72
2022/05/07 21:02:05;;;;;;;10.25;4.65;;;21.00;54.80;;;;;;7824141;22;20030;-72
2022/05/07 21:05:07;;;;;;;5.10;3.88;;;21.00;54.70;;;;;;7770605;22;20023;-71
2022/05/07 21:08:10;;;;;;;5.75;3.92;;;21.00;54.80;;;;;;7798247;22;20023;-71
2022/05/07 21:11:12;;;;;;;7.90;3.97;;;21.00;54.70;;;;;;7798660;22;20939;-71
2022/05/07 21:14:14;;;;;;;7.57;5.32;;;20.90;54.60;;;;;;7797124;22;20019;-72
2022/05/07 21:17:15;;;;;;;8.93;4.80;;;20.90;54.70;;;;;;7796768;22;20039;-71
2022/05/07 21:20:16;;;;;;;7.25;4.28;;;20.90;54.70;;;;;;7825660;22;20023;-70
2022/05/07 21:23:17;;;;;;;8.23;4.88;;;20.90;54.70;;;;;;7797534;22;20019;-71
2022/05/07 21:26:35;;;;;;;6.95;3.90;;;20.90;54.80;;;;;;7796443;22;20050;-72
2022/05/07 21:29:37;;;;;;;6.45;3.35;;;20.90;54.70;;;;;;7796677;22;20409;-70
2022/05/07 21:32:38;;;;;;;5.22;3.28;;;20.90;54.50;;;;;;7772110;22;20014;-71
2022/05/07 21:35:39;;;;;;;5.53;2.47;;;20.80;54.40;;;;;;7798120;22;20007;-71
2022/05/07 21:38:41;;;;;;;5.20;3.33;;;20.80;54.30;;;;;;7798022;22;20587;-71
2022/05/07 21:41:42;;;;;;;8.65;3.22;;;20.80;54.10;;;;;;7824084;22;20062;-71
2022/05/07 21:44:48;;;;;;;5.18;2.88;;;20.70;54.00;;;;;;7771976;22;20019;-70
2022/05/07 21:47:49;;;;;;;3.13;2.45;;;20.70;54.00;;;;;;7798552;22;20480;-71
2022/05/07 21:53:52;;;;;;;4.25;2.65;;;20.70;54.10;;;;;;7796624;22;20007;-72
2022/05/07 21:56:53;;;;;;;4.65;2.85;;;20.60;54.10;;;;;;7796778;22;20094;-72
2022/05/07 21:59:54;;;;;;;4.47;3.13;;;20.60;54.30;;;;;;7822760;22;20062;-72
2022/05/07 22:02:55;;;;;;;5.20;2.88;;;20.50;54.30;;;;;;7796269;22;20003;-72
2022/05/07 22:05:57;;;;;;;4.32;2.70;;;20.50;54.80;;;;;;7822420;22;20067;-73
2022/05/07 22:08:59;;;;;;;3.50;2.40;;;20.40;54.40;;;;;;7776544;22;20022;-72
2022/05/07 22:12:01;;;;;;;4.28;2.70;;;20.40;54.40;;;;;;7785452;22;20011;-72
2022/05/07 22:15:04;;;;;;;3.33;2.53;;;20.30;54.50;;;;;;7782347;22;20011;-72
2022/05/07 22:18:06;;;;;;;7.20;2.80;;;20.30;54.50;;;;;;7784689;22;20012;-72
2022/05/07 22:21:07;;;;;;;5.53;2.22;;;20.30;54.60;;;;;;7785846;22;20019;-72
2022/05/07 22:24:08;;;;;;;4.43;3.00;;;20.30;54.70;;;;;;7787080;22;20035;-72
2022/05/07 22:27:09;;;;;;;8.65;2.65;;;20.30;54.70;;;;;;7786355;22;20008;-72
2022/05/07 22:30:14;;;;;;;4.18;2.50;;;20.30;54.70;;;;;;7758365;22;20011;-72
2022/05/07 22:33:17;;;;;;;8.50;2.58;;;20.30;54.80;;;;;;7736601;22;20020;-73
2022/05/07 22:36:18;;;;;;;5.43;2.97;;;20.30;54.80;;;;;;7787451;22;20338;-72
2022/05/07 22:39:21;;;;;;;4.85;2.72;;;20.30;54.90;;;;;;7788358;22;20012;-73
2022/05/07 22:42:22;;;;;;;4.38;2.58;;;20.20;54.90;;;;;;7789776;22;20327;-72
2022/05/07 22:45:23;;;;;;;3.63;2.45;;;20.20;55.00;;;;;;7791173;22;20066;-72
2022/05/07 22:48:24;;;;;;;3.15;2.50;;;20.20;55.10;;;;;;7791595;22;20426;-72
2022/05/07 22:51:25;;;;;;;5.15;2.85;;;20.20;55.10;;;;;;7790294;22;20027;-71
2022/05/07 22:54:26;;;;;;;3.72;2.60;;;20.20;55.20;;;;;;7789748;22;20087;-72
2022/05/07 22:57:27;;;;;;;4.45;3.00;;;20.10;55.10;;;;;;7789797;22;20020;-72
2022/05/07 23:00:28;;;;;;;4.03;2.70;;;20.10;55.20;;;;;;7791376;22;20027;-73
2022/05/07 23:03:30;;;;;;;4.55;2.75;;;20.10;55.20;;;;;;7789995;22;20024;-71
2022/05/07 23:06:31;;;;;;;4.20;2.88;;;20.10;55.20;;;;;;7791042;22;20437;-72
2022/05/07 23:09:32;;;;;;;4.55;2.80;;;20.10;55.30;;;;;;7789743;22;20046;-72
2022/05/07 23:12:33;;;;;;;4.85;2.78;;;20.10;55.40;;;;;;7790621;22;20417;-72
2022/05/07 23:15:34;;;;;;;3.63;2.42;;;20.10;55.40;;;;;;7790871;22;20031;-72
2022/05/07 23:18:35;;;;;;;4.40;2.70;;;20.10;55.40;;;;;;7764209;22;20070;-72
2022/05/07 23:21:36;;;;;;;3.70;2.03;;;20.10;55.40;;;;;;7790146;22;20031;-73
2022/05/07 23:24:37;;;;;;;3.53;2.38;;;20.10;55.40;;;;;;7790102;22;20357;-71
2022/05/07 23:27:38;;;;;;;4.07;2.33;;;20.10;55.50;;;;;;7773605;22;20016;-72
2022/05/07 23:30:40;;;;;;;3.15;2.47;;;20.10;55.60;;;;;;7790889;22;20020;-72
2022/05/07 23:33:43;;;;;;;4.47;2.33;;;20.00;55.60;;;;;;7790682;22;20085;-73
2022/05/07 23:36:44;;;;;;;4.20;2.65;;;20.00;55.70;;;;;;7772948;22;20015;-71
2022/05/07 23:39:45;;;;;;;4.40;2.55;;;20.00;55.70;;;;;;7791109;22;20361;-72
2022/05/07 23:42:46;;;;;;;3.90;2.80;;;20.00;55.80;;;;;;7772116;22;20034;-72
2022/05/07 23:45:47;;;;;;;3.63;2.70;;;20.00;55.90;;;;;;7789221;22;20015;-72
2022/05/07 23:48:48;;;;;;;6.15;2.75;;;20.00;55.90;;;;;;7789130;22;20011;-72
2022/05/07 23:51:49;;;;;;;4.22;2.80;;;19.90;55.90;;;;;;7790240;22;20105;-72
2022/05/07 23:54:53;;;;;;;4.53;3.08;;;19.90;55.90;;;;;;7790467;22;20098;-72
2022/05/07 23:57:54;;;;;;;4.43;2.80;;;20.00;55.90;;;;;;7789592;22;20008;-72
